Home > Products > Valid Products > MTR

000
SAUS43 KABR 252157
MTR8D3
METAR K8D3 252156Z AUTO 16010KT M02/M06 A2988 RMK AO1 SLP147
T10221056





000
SAUS43 KABR 252057
MTR8D3
METAR K8D3 252056Z AUTO 15009KT M02/M06 A2988 RMK AO1 SLP144
T10171056 56019





000
SAUS43 KABR 251957
MTR8D3
METAR K8D3 251956Z AUTO 16008KT M02/M06 A2989 RMK AO1 SLP151
T10171056





000
SAUS43 KABR 251857
MTR8D3
METAR K8D3 251856Z AUTO 16009KT M01/M06 A2991 RMK AO1 SLP157
T10111056





000
SAUS43 KABR 251757
MTR8D3
METAR K8D3 251756Z AUTO 20004KT M02/M07 A2993 RMK AO1 SLP167
T10171067 11017 21056 58006





000
SAUS43 KABR 251657
MTR8D3
METAR K8D3 251656Z AUTO 14004KT M03/M07 A2995 RMK AO1 SLP172
T10281072





000
SAUS43 KABR 251657
MTR8D3
METAR K8D3 251656Z AUTO 14004KT M03/M07 A2995 RMK AO1 SLP172
T10281072





000
SAUS43 KABR 251557
MTR8D3
METAR K8D3 251556Z AUTO 00000KT M03/M08 A2995 RMK AO1 SLP172
T10281078





000
SAUS43 KABR 251457
MTR8D3
METAR K8D3 251456Z AUTO 25006KT M03/M09 A2995 RMK AO1 SLP173
T10331089 55003





000
SAUS43 KABR 251358
MTR8D3
METAR K8D3 251356Z AUTO 27007KT M04/M10 A2995 RMK AO1 SLP170
T10391100





000
SAUS43 KABR 251257
MTR8D3
METAR K8D3 251256Z AUTO 24005KT M05/M11 A2994 RMK AO1 SLP170
T10501106





000
SAUS43 KABR 251157
MTR8D3
METAR K8D3 251156Z AUTO 28006KT M06/M12 A2996 RMK AO1 SLP177
T10561117 11056 21117 58013





000
SAUS43 KABR 251057
MTR8D3
METAR K8D3 251056Z AUTO 00000KT M07/M13 A2998 RMK AO1 SLP185
T10721128





000
SAUS43 KABR 251057
MTR8D3
METAR K8D3 251056Z AUTO 00000KT M07/M13 A2998 RMK AO1 SLP185
T10721128





000
SAUS43 KABR 250957
MTR8D3
METAR K8D3 250956Z AUTO 00000KT M08/M16 A2999 RMK AO1 SLP185
T10781156





000
SAUS43 KABR 250857
MTR8D3
METAR K8D3 250856Z AUTO 26004KT M08/M16 A3000 RMK AO1 SLP191
T10781156 50001





000
SAUS43 KABR 250758
MTR8D3
METAR K8D3 250756Z AUTO 27004KT M09/M16 A3001 RMK AO1 SLP197
T10941156





000
SAUS43 KABR 250657
MTR8D3
METAR K8D3 250656Z AUTO 30005KT M11/M17 A3000 RMK AO1 SLP197
T11111167





000
SAUS43 KABR 250557
MTR8D3
METAR K8D3 250556Z AUTO 31007KT M12/M16 A3000 RMK AO1 SLP196
T11171161 11078 21122 410561122 50004





000
SAUS43 KABR 250457
MTR8D3
METAR K8D3 250456Z AUTO 32009KT M09/M16 A3001 RMK AO1 SLP198
T10941161





000
SAUS43 KABR 250357
MTR8D3
METAR K8D3 250356Z AUTO 33011KT M09/M16 A3000 RMK AO1 SLP196
T10941156





000
SAUS43 KABR 250357
MTR8D3
METAR K8D3 250356Z AUTO 33011KT M09/M16 A3000 RMK AO1 SLP196
T10941156





000
SAUS43 KABR 250258
MTR8D3
METAR K8D3 250256Z AUTO 34015KT M09/M15 A2999 RMK AO1 SLP192
T10941150 51019





000
SAUS43 KABR 250157
MTR8D3
METAR K8D3 250156Z AUTO 34016KT M09/M14 A2998 RMK AO1 SLP187
T10891144





000
SAUS43 KABR 250057
MTR8D3
METAR K8D3 250056Z AUTO 34017G24KT M08/M13 A2995 RMK AO1 SLP179
T10831133





000
SAUS43 KABR 242357
MTR8D3
METAR K8D3 242356Z AUTO 35016KT M08/M12 A2993 RMK AO1 PK WND
35027/2257 SLP169 T10781117 11056 21089 51046





000
SAUS43 KABR 242306 COR
MTR8D3
METAR K8D3 242256Z AUTO 34018G28KT M07/M11 A2989 RMK AO1 PK WND
35031/2157 SLP154 T10721111





000
SAUS43 KABR 242302 COR
MTR8D3
METAR K8D3 242256Z AUTO 34018G28KT M07/M11 A2989 RMK AO1 PK WND
35031/2157 SLP154 T10721111





000
SAUS43 KABR 242300 COR
MTR8D3
METAR K8D3 242256Z AUTO 34018G28KT M07/M11 A2989 RMK AO1 PK WND
35031/2157 SLP154 T10721111





000
SAUS43 KABR 242258
MTR8D3
METAR K8D3 242256Z AUTO 34018G28KT M07/M11 A2989 RMK AO1 PK WND
35031/2157 SLP154 T10721111





000
SAUS43 KABR 242157
MTR8D3
METAR K8D3 242156Z AUTO 34022G33KT M06/M11 A2984 RMK AO1 PK WND
35034/2057 PRESRR SLP136 T10611106





000
SAUS43 KABR 242058
MTR8D3
METAR K8D3 242056Z AUTO 34026G31KT M06/M10 A2979 RMK AO1 PK WND
36035/2014 SLP117 T10561100 53026





000
SAUS43 KABR 241957
MTR8D3
METAR K8D3 241956Z AUTO 35027G33KT M07/M11 A2976 RMK AO1 PK WND
35034/1923 SLP109 T10671111





000
SAUS43 KABR 241857
MTR8D3
METAR K8D3 241856Z AUTO 36024G33KT M08/M13 A2973 RMK AO1 PK WND
35036/1812 SLP100 T10831128





000
SAUS43 KABR 241806 COR
MTR8D3
METAR K8D3 241756Z AUTO 34028G35KT M09/M13 A2971 RMK AO1 PK WND
35035/1715 SLP092 T10891133 11089 21111 51016





000
SAUS43 KABR 241802 COR
MTR8D3
METAR K8D3 241756Z AUTO 34028G35KT M09/M13 A2971 RMK AO1 PK WND
35035/1715 SLP092 T10891133 11089 21111 51016





000
SAUS43 KABR 241800 COR
MTR8D3
METAR K8D3 241756Z AUTO 34028G35KT M09/M13 A2971 RMK AO1 PK WND
35035/1715 SLP092 T10891133 11089 21111 51016





000
SAUS43 KABR 241758
MTR8D3
METAR K8D3 241756Z AUTO 34028G35KT M09/M13 A2971 RMK AO1 PK WND
35035/1715 SLP092 T10891133 11089 21111 51016





000
SAUS43 KABR 241657
MTR8D3
METAR K8D3 241656Z AUTO 35028G38KT M11/M15 A2970 RMK AO1 PK WND
35038/1647 SLP092 T11111150





000
SAUS43 KABR 241606 COR
MTR8D3
METAR K8D3 241556Z AUTO 34026G32KT M11/M14 A2969 RMK AO1 PK WND
35035/1504 SLP086 T11111144





000
SAUS43 KABR 241601 COR
MTR8D3
METAR K8D3 241556Z AUTO 34026G32KT M11/M14 A2969 RMK AO1 PK WND
35035/1504 SLP086 T11111144





000
SAUS43 KABR 241559 COR
MTR8D3
METAR K8D3 241556Z AUTO 34026G32KT M11/M14 A2969 RMK AO1 PK WND
35035/1504 SLP086 T11111144





000
SAUS43 KABR 241557
MTR8D3
METAR K8D3 241556Z AUTO 34026G32KT M11/M14 A2969 RMK AO1 PK WND
35035/1504 SLP086 T11111144





000
SAUS43 KABR 241458
MTR8D3
METAR K8D3 241456Z AUTO 35020G29KT M11/M14 A2966 RMK AO1 PK WND
35035/1411 SLP076 T11111144 51025





000
SAUS43 KABR 241357
MTR8D3
METAR K8D3 241356Z AUTO 35021G32KT M11/M14 A2964 RMK AO1 PK WND
35033/1339 SLP068 T11061144





000
SAUS43 KABR 241257
MTR8D3
METAR K8D3 241256Z AUTO 35024G29KT M11/M14 A2962 RMK AO1 PK WND
35032/1231 SLP059 T11061139





000
SAUS43 KABR 241158
MTR8D3
METAR K8D3 241156Z AUTO 35027G31KT M10/M13 A2958 RMK AO1 PK WND
34033/1102 SLP046 T11001133 11072 21100 51010





000
SAUS43 KABR 241057
MTR8D3
METAR K8D3 241056Z AUTO 35019G29KT M09/M12 A2958 RMK AO1 PK WND
35031/0958 SLP042 T10941122





000
SAUS43 KABR 240957
MTR8D3
METAR K8D3 240956Z AUTO 35024G31KT M09/M12 A2956 RMK AO1 PK WND
35034/0935 SLP035 T10891117





000
SAUS43 KABR 240857
MTR8D3
METAR K8D3 240856Z AUTO 35020G31KT M08/M11 A2955 RMK AO1 PK WND
34031/0850 SLP030 T10831111 55000





000
SAUS43 KABR 240806 COR
MTR8D3
METAR K8D3 240756Z AUTO 35019G27KT M08/M11 A2955 RMK AO1 PK WND
35032/0712 SLP029 T10831111





000
SAUS43 KABR 240802 COR
MTR8D3
METAR K8D3 240756Z AUTO 35019G27KT M08/M11 A2955 RMK AO1 PK WND
35032/0712 SLP029 T10831111





000
SAUS43 KABR 240800 COR
MTR8D3
METAR K8D3 240756Z AUTO 35019G27KT M08/M11 A2955 RMK AO1 PK WND
35032/0712 SLP029 T10831111





000
SAUS43 KABR 240758
MTR8D3
METAR K8D3 240756Z AUTO 35019G27KT M08/M11 A2955 RMK AO1 PK WND
35032/0712 SLP029 T10831111





000
SAUS43 KABR 240706 COR
MTR8D3
METAR K8D3 240656Z AUTO 35025G29KT M08/M11 A2955 RMK AO1 PK WND
34031/0630 SLP025 T10781111





000
SAUS43 KABR 240702 COR
MTR8D3
METAR K8D3 240656Z AUTO 35025G29KT M08/M11 A2955 RMK AO1 PK WND
34031/0630 SLP025 T10781111





000
SAUS43 KABR 240659 COR
MTR8D3
METAR K8D3 240656Z AUTO 35025G29KT M08/M11 A2955 RMK AO1 PK WND
34031/0630 SLP025 T10781111





000
SAUS43 KABR 240657
MTR8D3
METAR K8D3 240656Z AUTO 35025G29KT M08/M11 A2955 RMK AO1 PK WND
34031/0630 SLP025 T10781111





000
SAUS43 KABR 240611 COR
MTR8D3
METAR K8D3 240556Z AUTO 34022G28KT M07/M10 A2955 RMK AO1 PK WND
33030/0526 SLP028 T10721100 11022 21072 400561072 51002





000
SAUS43 KABR 240609 COR
MTR8D3
METAR K8D3 240556Z AUTO 34022G28KT M07/M10 A2955 RMK AO1 PK WND
33030/0526 SLP028 T10721100 11022 21072 400561072 51002





000
SAUS43 KABR 240606 COR
MTR8D3
METAR K8D3 240556Z AUTO 34022G28KT M07/M10 A2955 RMK AO1 PK WND
33030/0526 SLP028 T10721100 11022 21072 400561072 51002





000
SAUS43 KABR 240601 COR
MTR8D3
METAR K8D3 240556Z AUTO 34022G28KT M07/M10 A2955 RMK AO1 PK WND
33030/0526 SLP028 T10721100 11022 21072 400561072 51002





000
SAUS43 KABR 240559 COR
MTR8D3
METAR K8D3 240556Z AUTO 34022G28KT M07/M10 A2955 RMK AO1 PK WND
33030/0526 SLP028 T10721100 11022 21072 400561072 51002





000
SAUS43 KABR 240557
MTR8D3
METAR K8D3 240556Z AUTO 34022G28KT M07/M10 A2955 RMK AO1 PK WND
33030/0526 SLP028 T10721100 11022 21072 400561072 51002





000
SAUS43 KABR 240458
MTR8D3
METAR K8D3 240456Z AUTO 34021G29KT M07/M09 A2955 RMK AO1 PK WND
33031/0436 SLP028 T10671094





000
SAUS43 KABR 240357
MTR8D3
METAR K8D3 240356Z AUTO 34025G31KT M06/M08 A2955 RMK AO1 PK WND
33033/0322 SLP025 T10611083





000
SAUS43 KABR 240258
MTR8D3
METAR K8D3 240256Z AUTO 33022G35KT M06/M07 A2955 RMK AO1 PK WND
33035/0247 SLP024 T10561067 50006





000
SAUS43 KABR 240157
MTR8D3
METAR K8D3 240156Z AUTO 33024G32KT M04/M07 A2955 RMK AO1 PK WND
33032/0147 SLP025 T10441067





000
SAUS43 KABR 240157
MTR8D3
METAR K8D3 240156Z AUTO 33024G32KT M04/M07 A2955 RMK AO1 PK WND
33032/0147 SLP025 T10441067





000
SAUS43 KABR 240057
MTR8D3
METAR K8D3 240056Z AUTO 32023G33KT M03/M06 A2954 RMK AO1 PK WND
32033/0050 SLP021 T10281061





000
SAUS43 KABR 232357
MTR8D3
METAR K8D3 232356Z AUTO 34022KT M02/M06 A2953 RMK AO1 PK WND
32027/2317 SLP014 T10221056 10056 21022 51020





000
SAUS43 KABR 232258
MTR8D3
METAR K8D3 232256Z AUTO 33022KT M01/M04 A2951 RMK AO1 PK WND
33027/2244 SLP006 T10061044





000
SAUS43 KABR 232157
MTR8D3
METAR K8D3 232156Z AUTO 32018G25KT 01/M04 A2949 RMK AO1 PK WND
34028/2126 SLP000 T00061039





000
SAUS43 KABR 232157
MTR8D3
METAR K8D3 232156Z AUTO 32018G25KT 01/M04 A2949 RMK AO1 PK WND
34028/2126 SLP000 T00061039





000
SAUS43 KABR 232057
MTR8D3
METAR K8D3 232056Z AUTO 33018G27KT 02/M03 A2947 RMK AO1 PK WND
33027/2049 SLP990 T00221028 55002





000
SAUS43 KABR 231957
MTR8D3
METAR K8D3 231956Z AUTO 34015KT 04/M01 A2946 RMK AO1 PK WND
32026/1937 SLP987 T00391006





000
SAUS43 KABR 231957
MTR8D3
METAR K8D3 231956Z AUTO 34015KT 04/M01 A2946 RMK AO1 PK WND
32026/1937 SLP987 T00391006





000
SAUS43 KABR 231857
MTR8D3
METAR K8D3 231856Z AUTO 30019KT 05/00 A2947 RMK AO1 PK WND
31029/1816 SLP992 T00500000





000
SAUS43 KABR 231757
MTR8D3
METAR K8D3 231756Z AUTO 30018KT 04/01 A2947 RMK AO1 SLP991 T00440006
10050 20033 50009





000
SAUS43 KABR 231657
MTR8D3
METAR K8D3 231656Z AUTO 30015G22KT 04/01 A2949 RMK AO1 SLP997
T00440011





000
SAUS43 KABR 231557
MTR8D3
METAR K8D3 231556Z AUTO 31010KT 04/02 A2947 RMK AO1 SLP993 T00440017





000
SAUS43 KABR 231457
MTR8D3
METAR K8D3 231456Z AUTO 31013KT 04/02 A2945 RMK AO1 SLP985 T00440022
51012





000
SAUS43 KABR 231357
MTR8D3
METAR K8D3 231356Z AUTO 32008KT 04/02 A2945 RMK AO1 SLP985 T00390022





000
SAUS43 KABR 231258
MTR8D3
METAR K8D3 231256Z AUTO 32014KT 04/02 A2942 RMK AO1 SLP976 T00390017





000
SAUS43 KABR 231157
MTR8D3
METAR K8D3 231156Z AUTO 33009KT 05/02 A2941 RMK AO1 SLP971 T00500017
10050 20000 53007





000
SAUS43 KABR 231057
MTR8D3
METAR K8D3 231056Z AUTO 32007KT 05/02 A2939 RMK AO1 SLP964 T00500017





000
SAUS43 KABR 230957
MTR8D3
METAR K8D3 230956Z AUTO 32003KT 04/01 A2937 RMK AO1 SLP958 T00440011





000
SAUS43 KABR 230957
MTR8D3
METAR K8D3 230956Z AUTO 32003KT 04/01 A2937 RMK AO1 SLP958 T00440011





000
SAUS43 KABR 230857
MTR8D3
METAR K8D3 230856Z AUTO 29007KT 04/01 A2939 RMK AO1 SLP962 T00440006
53008





000
SAUS43 KABR 230757
MTR8D3
METAR K8D3 230756Z AUTO 24009KT 04/00 A2938 RMK AO1 SLP958 T00440000





000
SAUS43 KABR 230658
MTR8D3
METAR K8D3 230656Z AUTO 00000KT 03/M01 A2937 RMK AO1 SLP957
T00281006





000
SAUS43 KABR 230557
MTR8D3
METAR K8D3 230556Z AUTO 00000KT 03/M01 A2936 RMK AO1 SLP956
T00281006 10044 21006 400441006 55007





000
SAUS43 KABR 230457
MTR8D3
METAR K8D3 230456Z AUTO 28004KT 02/01 A2936 RMK AO1 SLP956 T00220006





000
SAUS43 KABR 230457
MTR8D3
METAR K8D3 230456Z AUTO 28004KT 02/01 A2936 RMK AO1 SLP956 T00220006





000
SAUS43 KABR 230357
MTR8D3
METAR K8D3 230356Z AUTO 19009KT 01/00 A2935 RMK AO1 SLP955 T00060000





000
SAUS43 KABR 230357
MTR8D3
METAR K8D3 230356Z AUTO 19009KT 01/00 A2935 RMK AO1 SLP955 T00060000





000
SAUS43 KABR 230257
MTR8D3
METAR K8D3 230256Z AUTO 15010KT M01/M01 A2938 RMK AO1 SLP965
T10061006 58015





000
SAUS43 KABR 230157
MTR8D3
METAR K8D3 230156Z AUTO 16009KT 00/M01 A2940 RMK AO1 SLP971
T00001006





000
SAUS43 KABR 230057
MTR8D3
METAR K8D3 230056Z AUTO 16008KT 00/M01 A2941 RMK AO1 SLP976
T00001006





000
SAUS43 KABR 230006 COR
MTR8D3
METAR K8D3 222356Z AUTO 17008KT 01/00 A2943 RMK AO1 SLP981 T00060000
10033 20006 55009





000
SAUS43 KABR 230002 COR
MTR8D3
METAR K8D3 222356Z AUTO 17008KT 01/00 A2943 RMK AO1 SLP981 T00060000
10033 20006 55009





000
SAUS43 KABR 222359 COR
MTR8D3
METAR K8D3 222356Z AUTO 17008KT 01/00 A2943 RMK AO1 SLP981 T00060000
10033 20006 55009





000
SAUS43 KABR 222357
MTR8D3
METAR K8D3 222356Z AUTO 17008KT 01/00 A2943 RMK AO1 SLP981 T00060000
10033 20006 55009





000
SAUS43 KABR 222257
MTR8D3
METAR K8D3 222256Z AUTO 17012KT 01/00 A2942 RMK AO1 SLP978 T00110000





    US Dept of Commerce
    National Oceanic and Atmospheric Administration
    National Weather Service
    1325 East West Highway
    Silver Spring, MD 20910
    Page Author: NWS Internet Services Team
Disclaimer
Information Quality
Credits
Glossary
Privacy Policy
Freedom of Information Act (FOIA)
About Us
Career Opportunities